createdAt,value
2019-05-20T00:00:44.763Z,13.10
2019-05-20T00:03:15.590Z,14.70
2019-05-20T00:05:46.720Z,15.57
2019-05-20T00:08:18.243Z,14.87
2019-05-20T00:10:48.053Z,14.70
2019-05-20T00:13:18.236Z,14.47
2019-05-20T00:15:47.642Z,13.30
2019-05-20T00:18:19.163Z,13.28
2019-05-20T00:20:48.689Z,12.90
2019-05-20T00:23:18.068Z,13.60
2019-05-20T00:25:47.452Z,13.40
2019-05-20T00:28:18.041Z,13.50
2019-05-20T00:30:47.448Z,14.87
2019-05-20T00:33:18.305Z,14.25
2019-05-20T00:35:48.703Z,14.20
2019-05-20T00:38:18.855Z,15.50
2019-05-20T00:40:48.981Z,14.33
2019-05-20T00:43:19.140Z,14.10
2019-05-20T00:45:48.505Z,14.77
2019-05-20T00:48:18.028Z,14.40
2019-05-20T00:50:48.116Z,15.10
2019-05-20T00:53:18.704Z,14.70
2019-05-20T00:55:48.022Z,14.68
2019-05-20T00:58:19.794Z,14.97
2019-05-20T01:00:49.312Z,15.73
2019-05-20T01:03:18.712Z,15.60
2019-05-20T01:05:48.127Z,15.40
2019-05-20T01:08:19.000Z,13.60
2019-05-20T01:10:49.179Z,13.20
2019-05-20T01:13:18.861Z,13.03
2019-05-20T01:15:48.483Z,13.63
2019-05-20T01:18:18.773Z,13.45
2019-05-20T01:20:50.096Z,12.40
2019-05-20T01:23:19.407Z,12.63
2019-05-20T01:25:48.792Z,13.30
2019-05-20T01:28:18.754Z,12.30
2019-05-20T01:30:48.152Z,12.70
2019-05-20T01:33:19.753Z,12.10
2019-05-20T01:35:49.283Z,12.68
2019-05-20T01:38:19.454Z,11.73
2019-05-20T01:40:49.387Z,12.73
2019-05-20T01:43:19.174Z,12.57
2019-05-20T01:45:48.752Z,12.17
2019-05-20T01:48:18.910Z,13.15
2019-05-20T01:50:48.380Z,13.20
2019-05-20T01:53:18.657Z,12.83
2019-05-20T01:55:48.627Z,13.83
2019-05-20T01:58:18.265Z,13.87
2019-05-20T02:00:48.126Z,13.30
2019-05-20T02:03:30.992Z,13.00
2019-05-20T02:05:49.658Z,13.00
2019-05-20T02:08:19.898Z,15.05
2019-05-20T02:10:49.360Z,15.00
2019-05-20T02:13:18.741Z,14.57
2019-05-20T02:15:58.400Z,15.10
2019-05-20T02:18:28.191Z,15.00
2019-05-20T02:20:58.281Z,17.03
2019-05-20T02:23:27.866Z,15.53
2019-05-20T02:25:57.236Z,17.20
2019-05-20T02:28:27.244Z,16.70
2019-05-20T02:30:57.392Z,17.77
2019-05-20T02:33:27.019Z,17.57
2019-05-20T02:35:56.429Z,16.97
2019-05-20T02:38:27.092Z,17.53
2019-05-20T02:40:56.978Z,16.70
2019-05-20T02:43:26.704Z,18.17
2019-05-20T02:45:56.085Z,17.48
2019-05-20T02:48:25.676Z,18.10
2019-05-20T02:50:55.122Z,18.07
2019-05-20T02:53:25.331Z,18.70
2019-05-20T02:55:55.127Z,17.80
2019-05-20T02:58:25.021Z,18.83
2019-05-20T03:00:55.191Z,17.80
2019-05-20T03:03:24.750Z,19.90
2019-05-20T03:05:54.358Z,18.90
2019-05-20T03:08:24.269Z,19.13
2019-05-20T03:10:53.759Z,18.17
2019-05-20T03:13:23.295Z,19.40
2019-05-20T03:15:52.613Z,19.30
2019-05-20T03:18:22.373Z,21.30
2019-05-20T03:20:52.465Z,21.80
2019-05-20T03:23:21.856Z,20.85
2019-05-20T03:25:51.449Z,21.00
2019-05-20T03:28:21.925Z,22.90
2019-05-20T03:30:51.478Z,22.80
2019-05-20T03:33:24.066Z,22.60
2019-05-20T03:35:53.641Z,23.15
2019-05-20T03:38:23.062Z,24.57
2019-05-20T03:40:52.672Z,24.33
2019-05-20T03:43:22.417Z,27.22
2019-05-20T03:45:53.189Z,27.83
2019-05-20T03:48:23.074Z,30.30
2019-05-20T03:50:52.523Z,28.77
2019-05-20T03:53:22.220Z,29.77
2019-05-20T03:55:52.017Z,29.90
2019-05-20T03:58:21.429Z,32.00
2019-05-20T04:00:51.154Z,32.90
2019-05-20T04:03:21.255Z,34.63
2019-05-20T04:05:51.476Z,32.03
2019-05-20T04:08:21.276Z,32.47
2019-05-20T04:10:53.351Z,33.10
2019-05-20T04:13:22.774Z,34.67
2019-05-20T04:15:53.460Z,34.17
2019-05-20T04:18:23.123Z,34.30
2019-05-20T04:20:52.707Z,36.37
2019-05-20T04:23:22.667Z,34.02
2019-05-20T04:25:52.979Z,34.30
2019-05-20T04:28:25.599Z,36.10
2019-05-20T04:30:58.395Z,33.73
2019-05-20T04:33:28.197Z,35.53
2019-05-20T04:35:58.041Z,34.60
2019-05-20T04:38:27.451Z,30.93
2019-05-20T04:40:57.101Z,34.23
2019-05-20T04:43:27.094Z,38.53
2019-05-20T04:45:58.132Z,34.50
2019-05-20T04:48:28.125Z,38.03
2019-05-20T04:51:01.092Z,36.57
2019-05-20T04:53:31.270Z,36.30
2019-05-20T04:56:01.192Z,37.10
2019-05-20T04:58:30.931Z,34.47
2019-05-20T05:01:00.806Z,37.57
2019-05-20T05:03:30.214Z,36.57
2019-05-20T05:05:59.900Z,33.70
2019-05-20T05:08:29.297Z,35.80
2019-05-20T05:10:59.205Z,34.80
2019-05-20T05:13:28.839Z,36.03
2019-05-20T05:15:58.516Z,36.07
2019-05-20T05:18:28.606Z,34.10
2019-05-20T05:21:00.795Z,34.90
2019-05-20T05:23:30.442Z,33.23
2019-05-20T05:26:02.346Z,35.87
2019-05-20T05:28:31.984Z,37.00
2019-05-20T05:31:02.641Z,35.57
2019-05-20T05:33:32.893Z,36.90
2019-05-20T05:36:02.498Z,38.20
2019-05-20T05:38:32.414Z,36.37
2019-05-20T05:41:02.872Z,35.97
2019-05-20T05:43:32.760Z,36.77
2019-05-20T05:46:02.062Z,35.25
2019-05-20T05:48:31.491Z,37.20
2019-05-20T05:51:00.981Z,35.17
2019-05-20T05:53:31.921Z,37.40
2019-05-20T05:56:02.033Z,35.97
2019-05-20T05:58:32.039Z,35.53
2019-05-20T06:01:01.521Z,39.37
2019-05-20T06:03:30.945Z,38.93
2019-05-20T06:06:11.440Z,36.40
2019-05-20T06:08:31.482Z,37.37
2019-05-20T06:11:01.160Z,37.53
2019-05-20T06:13:30.544Z,38.67
2019-05-20T06:15:59.915Z,36.63
2019-05-20T06:18:29.937Z,36.37
2019-05-20T06:20:59.321Z,36.07
2019-05-20T06:23:28.817Z,37.50
2019-05-20T06:25:58.210Z,34.47
2019-05-20T06:28:28.128Z,37.40
2019-05-20T06:30:57.502Z,38.07
2019-05-20T06:33:26.914Z,36.07
2019-05-20T06:35:58.289Z,38.20
2019-05-20T06:38:45.054Z,34.93
2019-05-20T06:41:15.692Z,36.17
2019-05-20T06:43:45.373Z,36.68
2019-05-20T06:46:16.987Z,37.55
2019-05-20T06:48:46.508Z,36.17
2019-05-20T06:51:16.166Z,36.28
2019-05-20T06:53:48.364Z,38.70
2019-05-20T06:56:18.576Z,34.80
2019-05-20T06:58:49.706Z,34.77
2019-05-20T07:01:19.376Z,36.40
2019-05-20T07:03:48.797Z,37.23
2019-05-20T07:06:18.676Z,38.40
2019-05-20T07:08:52.706Z,37.23
2019-05-20T07:11:24.666Z,35.04
2019-05-20T07:13:54.566Z,35.60
2019-05-20T07:16:24.439Z,35.10
2019-05-20T07:18:54.265Z,36.90
2019-05-20T07:21:24.729Z,32.93
2019-05-20T07:23:54.052Z,35.33
2019-05-20T07:26:23.957Z,30.48
2019-05-20T07:28:53.906Z,33.13
2019-05-20T07:31:23.919Z,34.60
2019-05-20T07:33:53.479Z,33.40
2019-05-20T07:36:23.756Z,34.03
2019-05-20T07:38:56.678Z,31.95
2019-05-20T07:41:27.292Z,34.35
2019-05-20T07:43:57.394Z,34.33
2019-05-20T07:46:28.211Z,33.88
2019-05-20T07:48:59.603Z,34.27
2019-05-20T07:51:31.909Z,34.43
2019-05-20T07:54:02.695Z,33.27
2019-05-20T07:56:39.398Z,35.13
2019-05-20T07:59:15.169Z,35.80
2019-05-20T08:01:47.081Z,33.50
2019-05-20T08:04:19.373Z,35.55
2019-05-20T08:06:49.250Z,34.23
2019-05-20T08:09:19.121Z,37.37
2019-05-20T08:11:48.640Z,34.60
2019-05-20T08:14:18.513Z,36.13
2019-05-20T08:16:48.577Z,33.73
2019-05-20T08:19:21.361Z,34.65
2019-05-20T08:21:51.403Z,34.13
2019-05-20T08:24:21.448Z,36.23
2019-05-20T08:26:50.942Z,35.87
2019-05-20T08:29:22.808Z,33.33
2019-05-20T08:31:52.577Z,32.87
2019-05-20T08:34:23.179Z,36.40
2019-05-20T08:36:55.019Z,35.70
2019-05-20T08:39:24.802Z,34.33
2019-05-20T08:41:54.218Z,34.20
2019-05-20T08:44:24.534Z,36.00
2019-05-20T08:46:56.227Z,34.80
2019-05-20T08:49:26.981Z,35.27
2019-05-20T08:51:56.799Z,34.33
2019-05-20T08:54:26.459Z,34.70
2019-05-20T08:56:56.282Z,33.90
2019-05-20T08:59:25.877Z,32.77
2019-05-20T09:01:55.252Z,33.80
2019-05-20T09:04:26.196Z,34.00
2019-05-20T09:06:55.887Z,35.53
2019-05-20T09:09:25.646Z,32.20
2019-05-20T09:11:56.125Z,32.63
2019-05-20T09:14:25.795Z,31.37
2019-05-20T09:16:56.225Z,34.53
2019-05-20T09:19:26.139Z,31.60
2019-05-20T09:21:56.269Z,32.87
2019-05-20T09:24:29.298Z,33.90
2019-05-20T09:26:59.614Z,33.43
2019-05-20T09:29:29.327Z,31.33
2019-05-20T09:31:58.999Z,33.90
2019-05-20T09:34:28.826Z,34.50
2019-05-20T09:36:59.005Z,31.33
2019-05-20T09:39:28.744Z,32.30
2019-05-20T09:41:58.484Z,30.50
2019-05-20T09:44:27.906Z,31.97
2019-05-20T09:46:57.577Z,31.90
2019-05-20T09:49:27.261Z,31.97
2019-05-20T09:52:00.023Z,31.87
2019-05-20T09:54:29.633Z,30.00
2019-05-20T09:56:59.538Z,31.87
2019-05-20T09:59:42.197Z,30.30
2019-05-20T10:02:00.472Z,31.10
2019-05-20T10:04:30.956Z,30.07
2019-05-20T10:07:00.813Z,30.73
2019-05-20T10:09:30.575Z,31.20
2019-05-20T10:12:00.164Z,29.70
2019-05-20T10:14:29.976Z,30.93
2019-05-20T10:16:59.379Z,30.20
2019-05-20T10:19:30.179Z,30.40
2019-05-20T10:22:00.018Z,29.13
2019-05-20T10:24:29.797Z,28.43
2019-05-20T10:26:59.622Z,29.30
2019-05-20T10:29:32.623Z,27.87
2019-05-20T10:32:05.179Z,28.77
2019-05-20T10:34:37.268Z,29.75
2019-05-20T10:37:06.032Z,28.50
2019-05-20T10:39:35.714Z,28.37
2019-05-20T10:42:05.337Z,28.92
2019-05-20T10:44:34.755Z,27.60
2019-05-20T10:47:04.337Z,28.52
2019-05-20T10:49:34.461Z,28.77
2019-05-20T10:52:06.872Z,28.80
2019-05-20T10:54:36.427Z,29.30
2019-05-20T10:57:07.919Z,27.93
2019-05-20T10:59:37.356Z,28.00
2019-05-20T11:02:07.341Z,28.03
2019-05-20T11:04:36.876Z,27.90
2019-05-20T11:07:06.415Z,27.30
2019-05-20T11:09:39.079Z,29.20
2019-05-20T11:12:09.548Z,26.63
2019-05-20T11:14:39.773Z,28.80
2019-05-20T11:17:15.014Z,27.48
2019-05-20T11:19:44.371Z,26.00
2019-05-20T11:22:14.131Z,28.57
2019-05-20T11:24:44.024Z,25.87
2019-05-20T11:27:15.039Z,27.40
2019-05-20T11:29:44.490Z,26.90
2019-05-20T11:32:14.866Z,26.97
2019-05-20T11:34:46.011Z,26.87
2019-05-20T11:37:17.095Z,27.27
2019-05-20T11:39:47.149Z,28.10
2019-05-20T11:42:19.078Z,28.67
2019-05-20T11:44:51.538Z,29.90
2019-05-20T11:47:21.229Z,27.60
2019-05-20T11:49:50.961Z,27.10
2019-05-20T11:52:20.800Z,27.07
2019-05-20T11:54:50.280Z,27.47
2019-05-20T11:57:20.710Z,28.50
2019-05-20T11:59:50.189Z,26.30
2019-05-20T12:02:22.022Z,28.00
2019-05-20T12:04:51.495Z,28.57
2019-05-20T12:07:21.165Z,29.07
2019-05-20T12:09:50.652Z,29.77
2019-05-20T12:12:22.424Z,30.67
2019-05-20T12:14:52.251Z,31.07
2019-05-20T12:17:22.047Z,28.90
2019-05-20T12:19:52.050Z,29.60
2019-05-20T12:22:21.429Z,30.48
2019-05-20T12:24:51.818Z,31.87
2019-05-20T12:27:21.330Z,31.50
2019-05-20T12:29:50.975Z,32.77
2019-05-20T12:32:20.748Z,33.30
2019-05-20T12:34:51.340Z,32.98
2019-05-20T12:37:20.665Z,34.37
2019-05-20T12:40:05.839Z,36.28
2019-05-20T12:42:22.805Z,34.78
2019-05-20T12:44:52.172Z,35.80
2019-05-20T12:47:21.926Z,36.93
2019-05-20T12:49:52.457Z,32.17
2019-05-20T12:52:22.126Z,32.95
2019-05-20T12:55:06.727Z,32.03
2019-05-20T12:57:23.182Z,31.60
2019-05-20T12:59:52.610Z,31.33
2019-05-20T13:02:22.376Z,31.23
2019-05-20T13:04:52.157Z,31.60
2019-05-20T13:07:23.361Z,30.48
2019-05-20T13:09:53.211Z,31.20
2019-05-20T13:12:22.908Z,31.17
2019-05-20T13:14:52.508Z,30.10
2019-05-20T13:17:22.751Z,30.52
2019-05-20T13:19:52.393Z,29.17
2019-05-20T13:22:22.794Z,30.72
2019-05-20T13:24:52.757Z,29.00
2019-05-20T13:27:22.622Z,27.17
2019-05-20T13:29:52.252Z,26.87
2019-05-20T13:32:21.690Z,27.77
2019-05-20T13:34:53.062Z,28.10
2019-05-20T13:37:22.449Z,29.60
2019-05-20T13:39:53.019Z,29.43
2019-05-20T13:42:22.486Z,30.03
2019-05-20T13:44:51.877Z,25.57
2019-05-20T13:47:21.296Z,16.60
2019-05-20T13:49:51.288Z,11.40
2019-05-20T13:52:20.586Z,15.40
2019-05-20T13:54:50.237Z,16.77
2019-05-20T13:57:20.104Z,18.03
2019-05-20T13:59:50.022Z,16.07
2019-05-20T14:02:19.651Z,14.90
2019-05-20T14:04:49.859Z,13.10
2019-05-20T14:07:19.585Z,12.40
2019-05-20T14:09:49.257Z,13.37
2019-05-20T14:12:19.164Z,13.10
2019-05-20T14:14:48.931Z,13.10
2019-05-20T14:17:19.986Z,13.23
2019-05-20T14:19:49.564Z,13.30
2019-05-20T14:22:19.233Z,12.20
2019-05-20T14:24:48.637Z,11.80
2019-05-20T14:27:18.058Z,11.05
2019-05-20T14:29:47.703Z,11.60
2019-05-20T14:32:21.186Z,10.14
2019-05-20T14:34:51.457Z,9.80
2019-05-20T14:37:21.353Z,11.30
2019-05-20T14:39:50.725Z,10.83
2019-05-20T14:42:20.736Z,10.20
2019-05-20T14:44:50.186Z,10.95
2019-05-20T14:47:19.869Z,11.03
2019-05-20T14:49:49.272Z,12.13
2019-05-20T14:52:19.206Z,12.27
2019-05-20T14:54:49.022Z,11.90
2019-05-20T14:57:19.947Z,12.53
2019-05-20T14:59:49.358Z,12.77
2019-05-20T15:02:19.083Z,12.43
2019-05-20T15:04:50.153Z,13.77
2019-05-20T15:07:30.330Z,13.47
2019-05-20T15:09:51.988Z,12.67
2019-05-20T15:12:22.204Z,13.15
2019-05-20T15:14:52.047Z,13.70
2019-05-20T15:17:22.628Z,15.25
2019-05-20T15:19:52.343Z,14.40
2019-05-20T15:22:22.459Z,14.68
2019-05-20T15:24:52.137Z,14.07
2019-05-20T15:27:21.989Z,15.25
2019-05-20T15:29:51.736Z,14.80
2019-05-20T15:32:21.812Z,15.72
2019-05-20T15:34:52.483Z,16.30
2019-05-20T15:37:24.513Z,15.35
2019-05-20T15:39:54.663Z,14.53
2019-05-20T15:42:24.284Z,13.30
2019-05-20T15:44:54.172Z,9.90
2019-05-20T15:47:24.201Z,11.30
2019-05-20T15:49:54.822Z,11.97
2019-05-20T15:52:24.464Z,10.90
2019-05-20T15:54:54.665Z,10.33
2019-05-20T15:57:25.686Z,10.40
2019-05-20T15:59:55.234Z,10.80
2019-05-20T16:02:25.091Z,12.20
2019-05-20T16:04:54.934Z,13.20
2019-05-20T16:07:25.301Z,12.63
2019-05-20T16:09:55.004Z,14.40
2019-05-20T16:12:26.089Z,14.83
2019-05-20T16:14:56.186Z,14.80
2019-05-20T16:17:26.253Z,15.37
2019-05-20T16:19:55.810Z,14.90
2019-05-20T16:22:26.843Z,14.17
2019-05-20T16:24:57.220Z,12.50
2019-05-20T16:27:27.472Z,12.27
2019-05-20T16:30:06.270Z,13.17
2019-05-20T16:32:28.018Z,13.23
2019-05-20T16:34:57.992Z,13.40
2019-05-20T16:37:27.591Z,14.00
2019-05-20T16:39:57.226Z,12.70
2019-05-20T16:42:29.410Z,14.37
2019-05-20T16:44:59.174Z,16.00
2019-05-20T16:47:28.624Z,15.90
2019-05-20T16:49:58.142Z,14.67
2019-05-20T16:52:27.879Z,16.30
2019-05-20T16:54:57.857Z,15.70
2019-05-20T16:57:27.769Z,14.60
2019-05-20T16:59:57.101Z,14.47
2019-05-20T17:02:27.337Z,14.50
2019-05-20T17:04:57.871Z,11.60
2019-05-20T17:07:27.849Z,12.77
2019-05-20T17:09:57.184Z,13.60
2019-05-20T17:12:27.027Z,15.77
2019-05-20T17:14:56.921Z,16.90
2019-05-20T17:17:26.599Z,16.33
2019-05-20T17:19:56.388Z,17.60
2019-05-20T17:22:27.441Z,19.60
2019-05-20T17:24:57.141Z,16.80
2019-05-20T17:27:27.865Z,16.43
2019-05-20T17:29:57.335Z,19.60
2019-05-20T17:32:27.141Z,21.67
2019-05-20T17:34:56.685Z,22.57
2019-05-20T17:37:26.043Z,23.77
2019-05-20T17:39:55.414Z,25.87
2019-05-20T17:42:28.316Z,26.17
2019-05-20T17:44:57.661Z,27.97
2019-05-20T17:47:29.100Z,29.95
2019-05-20T17:49:59.323Z,28.40
2019-05-20T17:52:30.770Z,27.03
2019-05-20T17:55:00.481Z,28.40
2019-05-20T17:57:29.946Z,29.47
2019-05-20T17:59:59.750Z,28.40
2019-05-20T18:02:29.718Z,26.20
2019-05-20T18:04:59.179Z,26.73
2019-05-20T18:07:28.998Z,25.47
2019-05-20T18:09:58.345Z,29.13
2019-05-20T18:12:27.872Z,28.60
2019-05-20T18:15:00.173Z,29.97
2019-05-20T18:17:29.592Z,32.10
2019-05-20T18:19:59.366Z,30.37
2019-05-20T18:22:29.034Z,32.47
2019-05-20T18:24:58.494Z,38.50
2019-05-20T18:27:28.453Z,36.23
2019-05-20T18:29:58.037Z,34.00
2019-05-20T18:32:29.062Z,33.23
2019-05-20T18:34:58.967Z,34.50
2019-05-20T18:37:28.943Z,33.87
2019-05-20T18:40:12.842Z,33.27
2019-05-20T18:42:30.301Z,35.27
2019-05-20T18:45:00.240Z,35.87
2019-05-20T18:47:29.851Z,37.65
2019-05-20T18:49:59.328Z,39.50
2019-05-20T18:52:28.928Z,39.97
2019-05-20T18:54:59.783Z,36.73
2019-05-20T18:57:29.968Z,37.50
2019-05-20T18:59:59.393Z,39.47
2019-05-20T19:02:32.844Z,39.27
2019-05-20T19:05:03.224Z,37.87
2019-05-20T19:07:33.126Z,34.43
2019-05-20T19:10:03.964Z,36.00
2019-05-20T19:12:34.171Z,36.20
2019-05-20T19:15:10.746Z,34.87
2019-05-20T19:17:44.127Z,32.60
2019-05-20T19:20:15.657Z,32.70
2019-05-20T19:22:48.795Z,33.40
2019-05-20T19:25:18.840Z,31.60
2019-05-20T19:27:50.968Z,28.83
2019-05-20T19:30:22.592Z,32.90
2019-05-20T19:32:52.386Z,34.30
2019-05-20T19:35:22.436Z,34.80
2019-05-20T19:37:53.743Z,36.57
2019-05-20T19:40:23.308Z,37.57
2019-05-20T19:42:53.215Z,39.37
2019-05-20T19:45:23.027Z,39.20
2019-05-20T19:47:53.450Z,35.90
2019-05-20T19:50:23.865Z,34.13
2019-05-20T19:52:54.399Z,33.13
2019-05-20T19:55:40.609Z,27.02
2019-05-20T19:58:10.523Z,28.10
2019-05-20T20:00:40.431Z,25.73
2019-05-20T20:03:11.312Z,22.40
2019-05-20T20:05:42.439Z,22.00
2019-05-20T20:08:12.870Z,22.70
2019-05-20T20:10:43.625Z,23.77
2019-05-20T20:13:13.665Z,21.17
2019-05-20T20:15:43.688Z,21.30
2019-05-20T20:18:16.735Z,19.85
2019-05-20T20:20:47.810Z,16.50
2019-05-20T20:23:18.423Z,16.40
2019-05-20T20:25:48.339Z,15.10
2019-05-20T20:28:18.133Z,17.80
2019-05-20T20:30:48.494Z,17.40
2019-05-20T20:33:18.819Z,17.90
2019-05-20T20:35:51.716Z,18.70
2019-05-20T20:38:22.730Z,18.35
2019-05-20T20:40:52.722Z,21.87
2019-05-20T20:43:24.243Z,19.74
2019-05-20T20:45:54.052Z,19.57
2019-05-20T20:48:23.861Z,18.37
2019-05-20T20:50:54.354Z,17.87
2019-05-20T20:53:23.793Z,17.13
2019-05-20T20:55:53.829Z,16.97
2019-05-20T20:58:23.767Z,17.67
2019-05-20T21:00:53.463Z,17.00
2019-05-20T21:03:26.356Z,14.67
2019-05-20T21:05:56.868Z,14.70
2019-05-20T21:08:26.783Z,15.27
2019-05-20T21:10:56.637Z,13.10
2019-05-20T21:13:26.052Z,13.03
2019-05-20T21:15:58.464Z,11.57
2019-05-20T21:18:27.239Z,10.20
2019-05-20T21:20:56.972Z,13.07
2019-05-20T21:23:26.936Z,9.40
2019-05-20T21:25:56.638Z,9.73
2019-05-20T21:28:27.086Z,8.93
2019-05-20T21:30:57.019Z,9.00
2019-05-20T21:33:26.685Z,8.97
2019-05-20T21:35:58.493Z,10.10
2019-05-20T21:38:28.404Z,10.50
2019-05-20T21:40:58.381Z,10.93
2019-05-20T21:43:28.016Z,12.60
2019-05-20T21:45:57.436Z,12.77
2019-05-20T21:48:27.403Z,12.93
2019-05-20T21:50:57.322Z,14.43
2019-05-20T21:53:27.146Z,15.83
2019-05-20T21:55:56.505Z,17.13
2019-05-20T21:58:26.814Z,17.20
2019-05-20T22:00:57.746Z,17.27
2019-05-20T22:03:27.491Z,16.50
2019-05-20T22:05:57.257Z,17.33
2019-05-20T22:08:29.025Z,19.87
2019-05-20T22:10:58.659Z,17.57
2019-05-20T22:13:28.070Z,16.55
2019-05-20T22:15:57.467Z,16.40
2019-05-20T22:18:27.196Z,14.73
2019-05-20T22:20:57.271Z,16.70
2019-05-20T22:23:45.944Z,17.20
2019-05-20T22:26:16.845Z,18.87
2019-05-20T22:28:48.137Z,18.90
2019-05-20T22:31:18.117Z,18.98
2019-05-20T22:33:47.608Z,19.20
2019-05-20T22:36:17.468Z,21.20
2019-05-20T22:38:47.326Z,19.77
2019-05-20T22:41:17.722Z,19.00
2019-05-20T22:43:47.121Z,19.65
2019-05-20T22:46:17.464Z,18.23
2019-05-20T22:48:47.642Z,16.53
2019-05-20T22:51:18.773Z,17.12
2019-05-20T22:53:49.624Z,14.97
2019-05-20T22:56:19.824Z,15.68
2019-05-20T22:58:52.024Z,14.40
2019-05-20T23:01:21.393Z,13.35
2019-05-20T23:03:56.659Z,13.67
2019-05-20T23:06:26.630Z,13.67
2019-05-20T23:08:56.027Z,10.38
2019-05-20T23:11:26.341Z,11.67
2019-05-20T23:13:56.270Z,11.17
2019-05-20T23:16:28.377Z,10.73
2019-05-20T23:18:57.726Z,10.67
2019-05-20T23:21:28.335Z,8.05
2019-05-20T23:23:58.162Z,7.87
2019-05-20T23:26:27.516Z,9.33
2019-05-20T23:28:57.393Z,8.73
2019-05-20T23:31:28.203Z,8.40
2019-05-20T23:34:11.641Z,8.80
2019-05-20T23:36:30.067Z,8.55
2019-05-20T23:38:59.499Z,8.70
2019-05-20T23:41:28.858Z,9.30
2019-05-20T23:43:58.255Z,8.13
2019-05-20T23:46:27.773Z,8.63
2019-05-20T23:48:57.180Z,8.00
2019-05-20T23:51:26.620Z,6.40
2019-05-20T23:53:56.803Z,5.17
2019-05-20T23:56:26.988Z,5.20
2019-05-20T23:58:57.048Z,5.70
